KUGN/UGN METAR and TAF weather

Enter ICAO airport designator
Station Type Date Time Source
KUGN METAR 2020/01/22 17:55 UTC NOAA

KUGN 221755Z 20014KT 10SM CLR 00/M07 A3015 RMK AO2 SLP225 T00001067 10000 21044 58009


Station Type Date Time Source
KUGN Decoded METAR 2020/01/22 17:55 UTC NOAA

CHICAGO/WAUKEGAN REGIONAL, IL, United States (KUGN) 42-25N 087-52W
Jan 22, 2020 - 12:55 PM EST / 2020.01.22 1755 UTC
Wind: from the SSW (200 degrees) at 16 MPH (14 KT):0
Visibility: 10 mile(s):0
Sky conditions: clear
Temperature: 32.0 F (0.0 C)
Windchill: 21 F (-6 C):1
Dew Point: 19.9 F (-6.7 C)
Relative Humidity: 60%
Pressure (altimeter): 30.15 in. Hg (1020 hPa)
Pressure tendency: 0.03 inches (0.9 hPa) lower than three hours ago
ob: KUGN 221755Z 20014KT 10SM CLR 00/M07 A3015 RMK AO2 SLP225 T00001067 10000 21044 58009
cycle: 18

Station Type Date Time Source
KUGN TAF UTC NOAA

Error!

Example: see airport list